Time;durP1;ratioP1;P1;durP2;ratioP2;P2;SDS_P1;SDS_P2;PMS_P1;PMS_P2;Temp;Humidity;BMP_temperature;BMP_pressure;BME280_temperature;BME280_humidity;BME280_pressure;Samples;Min_cycle;Max_cycle;Signal;HPM_P1;HPM_P2
2024/03/01 00:00:08;;;;;;;50.17;25.95;;;;;;;9.40;70.16;94634.78;6252214;22;20357;-81
2024/03/01 00:02:34;;;;;;;50.08;24.02;;;;;;;9.17;70.71;94618.50;6252195;22;20026;-83
2024/03/01 00:04:59;;;;;;;50.50;26.00;;;;;;;9.42;70.26;94646.78;6251995;22;20003;-82
2024/03/01 00:07:25;;;;;;;51.28;26.27;;;;;;;9.25;70.39;94628.25;6226669;22;20341;-83
2024/03/01 00:09:50;;;;;;;48.17;24.00;;;;;;;9.28;70.32;94625.41;6251924;22;20217;-83
2024/03/01 00:12:16;;;;;;;45.33;22.52;;;;;;;9.44;70.36;94629.34;6277490;22;20011;-84
2024/03/01 00:14:41;;;;;;;51.80;25.17;;;;;;;9.38;70.57;94623.69;6277420;22;20481;-81
2024/03/01 00:17:06;;;;;;;58.17;25.58;;;;;;;9.25;70.87;94599.72;6251901;22;20467;-83
2024/03/01 00:19:32;;;;;;;45.03;24.10;;;;;;;9.24;70.95;94600.66;6304796;22;19999;-83
2024/03/01 00:21:57;;;;;;;50.47;25.30;;;;;;;9.37;70.60;94619.47;6226529;22;20015;-83
2024/03/01 00:24:23;;;;;;;51.70;24.75;;;;;;;9.27;71.00;94615.97;6252205;22;20452;-83
2024/03/01 00:26:48;;;;;;;57.95;26.10;;;;;;;9.18;71.15;94601.16;6251806;22;20011;-83
2024/03/01 00:29:13;;;;;;;58.97;26.33;;;;;;;9.14;71.24;94587.63;6226743;22;20026;-83
2024/03/01 00:31:39;;;;;;;51.55;25.70;;;;;;;9.08;71.78;94584.69;6251424;22;20026;-82
2024/03/01 00:34:05;;;;;;;57.83;26.33;;;;;;;9.04;71.67;94565.19;6251801;22;20025;-81
2024/03/01 00:36:30;;;;;;;51.47;25.08;;;;;;;8.78;72.36;94564.69;6251883;22;20038;-83
2024/03/01 00:38:55;;;;;;;46.30;22.80;;;;;;;9.02;72.32;94567.06;6277401;22;20010;-83
2024/03/01 00:41:21;;;;;;;46.30;22.33;;;;;;;9.02;71.47;94541.97;6277309;22;20060;-82
2024/03/01 00:43:46;;;;;;;42.53;22.17;;;;;;;9.13;70.93;94559.25;6277341;22;20429;-83
2024/03/01 00:46:12;;;;;;;48.60;25.13;;;;;;;9.00;70.83;94563.75;6251702;22;20464;-83
2024/03/01 00:48:37;;;;;;;41.65;22.20;;;;;;;8.93;71.14;94553.91;6304630;22;20448;-83
2024/03/01 00:51:03;;;;;;;56.85;27.45;;;;;;;8.86;71.42;94555.34;6304919;22;20372;-83
2024/03/01 00:53:28;;;;;;;53.40;26.98;;;;;;;8.76;71.72;94553.63;6251661;22;20475;-81
2024/03/01 00:55:54;;;;;;;41.90;22.35;;;;;;;8.80;72.16;94563.59;6226403;22;20023;-83
2024/03/01 00:58:19;;;;;;;37.85;20.10;;;;;;;8.84;71.91;94549.47;6304573;22;20000;-83
2024/03/01 01:00:45;;;;;;;46.42;21.80;;;;;;;8.39;72.64;94522.88;6251552;22;20022;-83
2024/03/01 01:03:10;;;;;;;42.75;20.25;;;;;;;8.68;72.28;94549.84;6251743;22;20392;-83
2024/03/01 01:05:35;;;;;;;41.35;21.38;;;;;;;8.70;72.24;94541.97;6226434;22;20476;-83
2024/03/01 01:08:01;;;;;;;41.03;19.98;;;;;;;8.44;72.39;94506.03;6305051;22;20027;-83
2024/03/01 01:10:28;;;;;;;41.03;20.92;;;;;;;8.67;72.05;94519.75;6253559;22;20011;-83
2024/03/01 01:12:54;;;;;;;40.97;20.48;;;;;;;8.61;71.89;94515.06;6254400;22;20029;-83
2024/03/01 01:15:20;;;;;;;43.72;21.02;;;;;;;8.52;72.31;94520.94;6228209;22;20010;-83
2024/03/01 01:17:45;;;;;;;36.47;19.13;;;;;;;8.47;72.73;94516.16;6279210;22;20078;-83
2024/03/01 01:20:11;;;;;;;40.53;20.65;;;;;;;8.31;72.42;94496.75;6278956;22;20438;-82
2024/03/01 01:22:36;;;;;;;47.08;22.60;;;;;;;8.31;72.61;94499.34;6253352;22;20065;-82
2024/03/01 01:25:02;;;;;;;43.50;20.75;;;;;;;8.26;72.76;94502.28;6253592;22;20007;-83
2024/03/01 01:27:27;;;;;;;40.95;18.70;;;;;;;8.41;72.79;94501.13;6253544;22;20094;-82
2024/03/01 01:29:53;;;;;;;35.15;18.80;;;;;;;8.29;72.77;94497.66;6279008;22;20007;-82
2024/03/01 01:32:18;;;;;;;36.45;18.70;;;;;;;8.42;72.98;94501.94;6278587;22;20015;-82
2024/03/01 01:34:44;;;;;;;44.58;20.90;;;;;;;8.12;73.27;94492.19;6306154;22;20004;-83
2024/03/01 01:37:09;;;;;;;38.60;19.90;;;;;;;8.15;74.15;94490.16;6306579;22;20014;-82
2024/03/01 01:39:34;;;;;;;43.45;20.90;;;;;;;8.05;74.27;94487.50;6278970;22;19999;-82
2024/03/01 01:42:00;;;;;;;44.75;19.90;;;;;;;8.01;74.79;94499.00;6253212;22;20011;-83
2024/03/01 01:44:25;;;;;;;39.22;19.92;;;;;;;7.94;74.69;94497.00;6278791;22;19999;-80
2024/03/01 01:46:51;;;;;;;32.95;18.27;;;;;;;7.95;75.72;94494.31;6253362;22;20011;-83
2024/03/01 01:49:17;;;;;;;38.53;20.48;;;;;;;7.65;76.41;94487.16;6278922;22;20078;-83
2024/03/01 01:51:43;;;;;;;45.25;20.70;;;;;;;8.00;75.49;94486.22;6253494;22;20074;-82
2024/03/01 01:54:09;;;;;;;40.88;21.35;;;;;;;7.95;74.97;94481.38;6278842;22;20433;-82
2024/03/01 01:56:35;;;;;;;47.35;23.08;;;;;;;7.72;75.41;94464.25;6278916;22;20030;-82
2024/03/01 01:59:01;;;;;;;40.63;21.55;;;;;;;7.91;75.69;94472.22;6253244;22;20074;-82
2024/03/01 02:01:26;;;;;;;42.88;20.45;;;;;;;8.03;74.60;94463.50;6278674;22;20022;-83
2024/03/01 02:03:52;;;;;;;39.22;20.73;;;;;;;7.97;74.70;94455.41;6278408;22;20007;-81
2024/03/01 02:06:19;;;;;;;35.53;19.02;;;;;;;8.06;73.49;94465.03;6278882;22;20018;-83
2024/03/01 02:08:45;;;;;;;37.15;18.20;;;;;;;7.77;73.63;94449.19;6253376;22;20441;-83
2024/03/01 02:11:11;;;;;;;38.03;17.92;;;;;;;7.81;73.56;94448.84;6227589;22;20072;-83
2024/03/01 02:13:36;;;;;;;41.67;20.27;;;;;;;7.61;74.76;94450.38;6253165;22;20003;-82
2024/03/01 02:16:02;;;;;;;46.22;20.15;;;;;;;7.53;74.81;94444.97;6253032;22;20464;-83
2024/03/01 02:18:27;;;;;;;41.70;20.15;;;;;;;7.55;75.26;94445.69;6252884;22;20449;-83
2024/03/01 02:21:06;;;;;;;41.20;19.63;;;;;;;7.75;75.17;94467.41;6227495;22;20011;-83
2024/03/01 02:23:31;;;;;;;45.25;22.75;;;;;;;7.63;75.64;94477.84;6278673;22;20053;-82
2024/03/01 02:25:57;;;;;;;40.35;20.63;;;;;;;7.59;76.14;94474.69;6252847;22;20456;-83
2024/03/01 02:28:22;;;;;;;46.20;22.10;;;;;;;7.47;76.87;94471.28;6227716;22;20455;-83
2024/03/01 02:30:51;;;;;;;42.88;22.67;;;;;;;7.27;77.71;94446.97;6252775;22;20039;-83
2024/03/01 02:33:17;;;;;;;41.65;19.58;;;;;;;7.28;77.68;94458.13;6279113;22;20335;-82
2024/03/01 02:35:42;;;;;;;40.50;19.05;;;;;;;7.34;77.08;94458.47;6252782;22;20007;-83
2024/03/01 02:38:08;;;;;;;39.33;18.40;;;;;;;7.30;77.01;94441.56;6227500;22;20007;-83
2024/03/01 02:40:33;;;;;;;47.97;22.33;;;;;;;7.39;77.11;94456.34;6278380;22;20010;-83
2024/03/01 02:42:58;;;;;;;42.10;21.15;;;;;;;7.35;77.43;94461.88;6252469;22;20038;-83
2024/03/01 02:45:24;;;;;;;38.80;21.38;;;;;;;7.61;76.47;94465.06;6252584;22;20011;-82
2024/03/01 02:47:49;;;;;;;41.90;20.00;;;;;;;7.49;76.82;94481.50;6252580;22;20007;-82
2024/03/01 02:50:15;;;;;;;35.05;17.10;;;;;;;7.51;75.85;94480.44;6278217;22;20330;-83
2024/03/01 02:52:41;;;;;;;38.97;20.42;;;;;;;7.35;76.67;94475.63;6252750;22;20087;-83
2024/03/01 02:55:07;;;;;;;37.70;20.50;;;;;;;7.29;77.26;94464.91;6253488;22;20011;-83
2024/03/01 02:57:33;;;;;;;44.63;21.10;;;;;;;7.35;76.80;94460.13;6278230;22;20098;-82
2024/03/01 02:59:59;;;;;;;39.67;19.83;;;;;;;7.43;76.31;94446.59;6227528;22;20106;-82
2024/03/01 03:02:24;;;;;;;40.50;18.83;;;;;;;7.52;76.12;94455.41;6278221;22;20437;-82
2024/03/01 03:04:49;;;;;;;40.40;20.15;;;;;;;7.29;76.32;94431.31;6252405;22;20011;-83
2024/03/01 03:07:15;;;;;;;36.85;18.20;;;;;;;7.31;75.99;94445.78;6278099;22;20007;-83
2024/03/01 03:09:45;;;;;;;47.42;21.30;;;;;;;7.01;77.06;94432.59;6252362;22;20353;-83
2024/03/01 03:12:11;;;;;;;37.10;18.73;;;;;;;7.20;77.29;94447.53;6253069;22;20011;-83
2024/03/01 03:14:36;;;;;;;35.22;18.27;;;;;;;6.82;77.03;94384.88;6252919;22;20014;-81
2024/03/01 03:17:04;;;;;;;35.33;18.40;;;;;;;7.10;77.43;94443.06;6252418;22;20049;-82
2024/03/01 03:19:29;;;;;;;40.17;18.73;;;;;;;6.76;78.14;94405.19;6278028;22;20025;-82
2024/03/01 03:21:55;;;;;;;37.35;19.20;;;;;;;7.10;78.22;94440.47;6252317;22;20058;-82
2024/03/01 03:24:20;;;;;;;35.40;17.75;;;;;;;7.13;77.81;94440.25;6252206;22;20419;-83
2024/03/01 03:26:46;;;;;;;39.22;20.05;;;;;;;7.04;78.17;94424.59;6252360;22;20080;-82
2024/03/01 03:29:11;;;;;;;38.83;19.35;;;;;;;7.41;77.06;94433.00;6227035;22;20041;-82
2024/03/01 03:31:37;;;;;;;38.70;19.42;;;;;;;7.34;76.79;94419.69;6277323;22;20424;-82
2024/03/01 03:34:04;;;;;;;43.30;19.52;;;;;;;7.19;76.86;94399.38;6252289;22;20027;-82
2024/03/01 03:36:30;;;;;;;39.70;20.20;;;;;;;7.27;77.11;94422.84;6252905;22;20034;-82
2024/03/01 03:38:55;;;;;;;37.22;19.20;;;;;;;7.43;76.56;94425.94;6277689;22;20026;-81
2024/03/01 03:41:21;;;;;;;36.90;18.38;;;;;;;7.50;76.67;94434.06;6277636;22;20011;-81
2024/03/01 03:43:46;;;;;;;40.15;18.20;;;;;;;7.48;76.32;94428.16;6277611;22;20007;-80
2024/03/01 03:46:12;;;;;;;36.60;18.20;;;;;;;7.50;76.42;94442.63;6277711;22;20007;-82
2024/03/01 03:48:39;;;;;;;35.63;19.38;;;;;;;7.57;76.15;94415.34;6304881;22;20018;-81
2024/03/01 03:51:05;;;;;;;37.75;19.67;;;;;;;7.53;75.92;94420.88;6304872;22;20011;-82
2024/03/01 03:53:32;;;;;;;36.72;19.38;;;;;;;7.61;75.77;94426.28;6277653;22;20010;-81
2024/03/01 03:55:57;;;;;;;44.92;20.60;;;;;;;7.71;75.80;94423.81;6252408;22;20038;-82
2024/03/01 03:58:23;;;;;;;40.55;21.17;;;;;;;7.74;75.72;94424.38;6252124;22;20003;-82
2024/03/01 04:00:49;;;;;;;39.80;20.08;;;;;;;7.77;75.54;94420.72;6251819;22;20011;-82
2024/03/01 04:03:14;;;;;;;39.17;20.50;;;;;;;7.71;75.60;94410.88;6304845;22;20007;-81
2024/03/01 04:05:40;;;;;;;45.55;22.55;;;;;;;7.63;76.09;94419.22;6252067;22;20018;-82
2024/03/01 04:08:05;;;;;;;36.65;19.00;;;;;;;7.85;75.51;94426.13;6277676;22;20005;-82
2024/03/01 04:10:33;;;;;;;43.65;22.50;;;;;;;7.97;74.91;94417.44;6251871;22;20023;-82
2024/03/01 04:12:58;;;;;;;39.53;20.40;;;;;;;7.95;74.92;94408.16;6277925;22;20056;-81
2024/03/01 04:15:24;;;;;;;37.83;19.38;;;;;;;7.97;74.75;94421.78;6277364;22;20011;-81
2024/03/01 04:17:49;;;;;;;33.17;18.33;;;;;;;7.97;74.72;94414.03;6251755;22;20326;-82
2024/03/01 04:20:16;;;;;;;33.05;18.60;;;;;;;8.07;74.69;94415.75;6277853;22;20007;-82
2024/03/01 04:22:42;;;;;;;34.63;19.20;;;;;;;7.78;75.33;94405.13;6252243;22;20502;-82
2024/03/01 04:25:08;;;;;;;32.63;18.50;;;;;;;7.99;74.84;94394.81;6277428;22;20003;-82
2024/03/01 04:27:34;;;;;;;29.48;16.52;;;;;;;8.10;74.09;94393.16;6304458;22;20038;-82
2024/03/01 04:30:00;;;;;;;27.83;15.95;;;;;;;7.98;73.80;94397.56;6304700;22;20004;-82
2024/03/01 04:32:25;;;;;;;28.98;17.75;;;;;;;7.74;74.56;94382.19;6251882;22;20019;-82
2024/03/01 04:34:51;;;;;;;31.17;17.65;;;;;;;7.83;75.06;94397.00;6251858;22;20038;-83
2024/03/01 04:37:16;;;;;;;28.52;16.38;;;;;;;7.80;75.17;94404.97;6251896;22;20042;-82
2024/03/01 04:39:42;;;;;;;34.88;18.27;;;;;;;7.71;75.59;94418.63;6251793;22;20007;-83
2024/03/01 04:42:08;;;;;;;32.13;18.52;;;;;;;7.61;75.88;94423.72;6277110;22;20015;-82
2024/03/01 04:44:34;;;;;;;28.73;17.27;;;;;;;7.72;75.96;94435.81;6228741;22;20030;-82
2024/03/01 04:47:00;;;;;;;32.13;18.23;;;;;;;7.62;75.92;94435.69;6279658;22;20417;-82
2024/03/01 04:49:26;;;;;;;33.55;18.33;;;;;;;7.66;76.58;94431.94;6279498;22;20010;-82
2024/03/01 04:51:51;;;;;;;35.53;17.88;;;;;;;7.47;76.27;94386.00;6228634;22;20272;-83
2024/03/01 04:54:16;;;;;;;32.08;18.48;;;;;;;7.67;76.11;94422.41;6253810;22;20049;-83
2024/03/01 04:56:44;;;;;;;29.58;18.77;;;;;;;7.92;75.34;94422.13;6253748;22;20007;-82
2024/03/01 04:59:09;;;;;;;28.80;18.23;;;;;;;7.68;76.07;94418.88;6254916;22;20053;-82
2024/03/01 05:01:39;;;;;;;31.50;18.70;;;;;;;7.77;75.72;94410.38;6228229;22;20023;-82
2024/03/01 05:04:08;;;;;;;29.63;17.77;;;;;;;7.91;75.31;94428.25;6306504;22;20010;-82
2024/03/01 05:06:37;;;;;;;25.52;14.93;;;;;;;7.86;75.12;94420.03;6254195;22;20015;-82
2024/03/01 05:09:03;;;;;;;26.17;15.65;;;;;;;7.94;74.80;94420.25;6228958;22;20092;-81
2024/03/01 05:11:33;;;;;;;25.52;15.68;;;;;;;7.97;74.49;94425.19;6253915;22;20459;-82
2024/03/01 05:13:59;;;;;;;27.07;15.40;;;;;;;7.78;74.98;94418.03;6280447;22;19999;-82
2024/03/01 05:16:25;;;;;;;23.83;14.52;;;;;;;7.64;75.22;94422.66;6279245;22;20330;-82
2024/03/01 05:18:51;;;;;;;24.00;14.02;;;;;;;7.75;74.82;94412.28;6279165;22;20088;-83
2024/03/01 05:21:16;;;;;;;22.92;14.25;;;;;;;7.59;75.06;94436.75;6253555;22;20472;-82
2024/03/01 05:23:42;;;;;;;21.70;13.40;;;;;;;7.32;75.24;94376.81;6279134;22;20073;-80
2024/03/01 05:26:07;;;;;;;23.60;13.95;;;;;;;7.64;75.25;94422.66;6279092;22;20514;-82
2024/03/01 05:28:33;;;;;;;22.45;15.10;;;;;;;7.63;75.84;94433.91;6253656;22;20003;-81
2024/03/01 05:30:58;;;;;;;23.27;14.02;;;;;;;7.72;75.87;94425.47;6253296;22;20008;-82
2024/03/01 05:33:24;;;;;;;24.70;13.77;;;;;;;7.75;75.66;94413.09;6279043;22;20010;-82
2024/03/01 05:35:49;;;;;;;19.42;13.57;;;;;;;7.85;74.96;94436.47;6253217;22;20015;-82
2024/03/01 05:38:15;;;;;;;27.73;15.75;;;;;;;7.70;75.77;94429.94;6279022;22;20011;-82
2024/03/01 05:40:40;;;;;;;22.95;14.45;;;;;;;7.83;75.75;94452.13;6253409;22;20079;-82
2024/03/01 05:43:05;;;;;;;23.95;15.02;;;;;;;7.65;76.02;94456.13;6306123;22;20011;-82
2024/03/01 05:45:31;;;;;;;24.85;14.90;;;;;;;7.64;76.16;94451.09;6253685;22;19999;-82
2024/03/01 05:47:57;;;;;;;25.40;15.75;;;;;;;7.92;75.53;94460.94;6253357;22;20008;-83
2024/03/01 05:50:22;;;;;;;24.58;15.68;;;;;;;7.97;74.83;94445.06;6306093;22;20007;-84
2024/03/01 05:52:48;;;;;;;23.15;15.88;;;;;;;8.25;74.32;94454.06;6278592;22;20007;-83
2024/03/01 05:55:14;;;;;;;25.17;16.25;;;;;;;8.20;74.51;94433.72;6278651;22;20026;-83
2024/03/01 05:57:40;;;;;;;23.60;14.38;;;;;;;7.99;75.22;94448.34;6227997;22;20437;-83
2024/03/01 06:00:17;;;;;;;19.90;13.27;;;;;;;8.18;75.23;94450.31;6253178;22;20003;-83
2024/03/01 06:02:44;;;;;;;22.50;14.02;;;;;;;8.01;74.39;94405.88;6232975;22;20011;-84
2024/03/01 06:05:10;;;;;;;22.35;13.35;;;;;;;8.10;75.08;94431.97;6253528;22;19999;-83
2024/03/01 06:07:36;;;;;;;20.95;13.50;;;;;;;8.19;75.12;94433.81;6253467;22;20018;-84
2024/03/01 06:10:01;;;;;;;21.90;14.35;;;;;;;8.03;75.11;94426.47;6253281;22;19999;-84
2024/03/01 06:12:27;;;;;;;21.17;14.02;;;;;;;8.26;74.94;94455.69;6253222;22;20380;-84
2024/03/01 06:14:52;;;;;;;21.80;13.93;;;;;;;8.08;75.37;94429.53;6252362;22;20007;-84
2024/03/01 06:17:17;;;;;;;17.60;12.93;;;;;;;8.29;74.94;94424.38;6251184;22;20365;-84
2024/03/01 06:19:43;;;;;;;21.77;14.73;;;;;;;8.18;74.05;94424.44;6250993;22;20428;-84
2024/03/01 06:22:08;;;;;;;20.88;13.18;;;;;;;8.22;74.39;94418.88;6304040;22;20468;-83
2024/03/01 06:24:34;;;;;;;20.08;13.32;;;;;;;8.31;74.14;94430.28;6252571;22;20014;-84
2024/03/01 06:26:59;;;;;;;20.48;13.65;;;;;;;8.37;73.81;94421.19;6278573;22;20441;-84
2024/03/01 06:29:25;;;;;;;22.50;13.52;;;;;;;8.28;74.43;94426.16;6278570;22;20003;-84
2024/03/01 06:31:50;;;;;;;19.27;12.57;;;;;;;8.32;73.60;94418.16;6278105;22;20023;-84
2024/03/01 06:34:16;;;;;;;21.08;13.45;;;;;;;8.60;73.33;94434.91;6278620;22;20007;-82
2024/03/01 06:36:41;;;;;;;18.25;12.25;;;;;;;8.72;73.03;94441.69;6278470;22;20090;-84
2024/03/01 06:39:08;;;;;;;19.42;13.05;;;;;;;8.71;73.21;94460.75;6227555;22;20397;-84
2024/03/01 06:41:34;;;;;;;23.40;14.27;;;;;;;8.72;73.32;94452.06;6277684;22;20021;-84
2024/03/01 06:43:59;;;;;;;22.23;15.25;;;;;;;8.54;73.78;94428.44;6278079;22;20046;-84
2024/03/01 06:46:25;;;;;;;22.88;15.55;;;;;;;8.56;73.59;94441.28;6278240;22;20015;-83
2024/03/01 06:48:50;;;;;;;22.20;14.80;;;;;;;8.68;73.55;94454.03;6305560;22;20080;-82
2024/03/01 06:51:16;;;;;;;23.08;16.92;;;;;;;8.71;73.86;94451.19;6252765;22;20016;-84
2024/03/01 06:53:42;;;;;;;23.45;15.52;;;;;;;8.80;73.52;94447.03;6252851;22;20010;-84
2024/03/01 06:56:07;;;;;;;24.17;15.63;;;;;;;9.13;72.18;94447.81;6252784;22;20008;-85
2024/03/01 06:58:33;;;;;;;25.98;15.25;;;;;;;9.11;72.15;94450.53;6227504;22;20010;-82
2024/03/01 07:00:58;;;;;;;24.70;16.52;;;;;;;8.90;72.14;94439.34;6305268;22;20125;-82
2024/03/01 07:03:23;;;;;;;23.50;15.90;;;;;;;8.67;73.24;94446.41;6278207;22;20053;-84
2024/03/01 07:05:49;;;;;;;26.27;16.08;;;;;;;8.55;74.07;94424.09;6277644;22;20011;-84
2024/03/01 07:08:14;;;;;;;25.23;16.63;;;;;;;8.64;74.07;94437.13;6252487;22;20015;-84
2024/03/01 07:10:39;;;;;;;24.95;16.80;;;;;;;8.73;73.99;94440.72;6252306;22;20080;-85
2024/03/01 07:13:05;;;;;;;25.20;15.73;;;;;;;8.72;74.21;94405.44;6278343;22;20453;-84
2024/03/01 07:15:30;;;;;;;22.33;16.48;;;;;;;8.82;74.18;94419.25;6252781;22;20003;-84
2024/03/01 07:17:57;;;;;;;23.70;15.38;;;;;;;8.82;74.01;94421.84;6252301;22;20013;-84
2024/03/01 07:20:23;;;;;;;24.40;16.10;;;;;;;8.90;73.91;94426.41;6278120;22;20007;-84
2024/03/01 07:22:49;;;;;;;25.70;16.17;;;;;;;8.92;73.85;94412.38;6277675;22;20011;-84
2024/03/01 07:25:15;;;;;;;25.00;15.80;;;;;;;9.06;73.14;94419.00;6252914;22;19999;-83
2024/03/01 07:27:41;;;;;;;25.98;15.57;;;;;;;8.88;73.23;94410.97;6252900;22;20007;-83
2024/03/01 07:30:07;;;;;;;23.80;15.18;;;;;;;8.91;72.51;94377.06;6305743;22;20444;-83
2024/03/01 07:32:34;;;;;;;23.70;15.32;;;;;;;8.91;72.11;94374.47;6278055;22;20039;-84
2024/03/01 07:35:01;;;;;;;24.80;15.55;;;;;;;9.05;72.08;94395.81;6228206;22;20010;-84
2024/03/01 07:37:29;;;;;;;21.83;14.75;;;;;;;9.05;72.16;94395.81;6254616;22;20007;-84
2024/03/01 07:39:54;;;;;;;22.55;15.40;;;;;;;9.08;72.36;94390.34;6252686;22;20015;-82
2024/03/01 07:42:20;;;;;;;22.40;16.08;;;;;;;9.18;72.50;94401.59;6278420;22;20037;-83
2024/03/01 07:44:45;;;;;;;23.42;15.40;;;;;;;9.36;72.03;94412.19;6278387;22;20006;-83
2024/03/01 07:47:11;;;;;;;24.98;15.88;;;;;;;9.12;72.26;94399.53;6278284;22;20014;-84
2024/03/01 07:49:36;;;;;;;24.38;15.10;;;;;;;9.21;72.12;94403.13;6305949;22;20003;-84
2024/03/01 07:52:01;;;;;;;25.83;17.17;;;;;;;9.01;72.76;94404.78;6278314;22;20056;-84
2024/03/01 07:54:27;;;;;;;32.30;19.30;;;;;;;9.20;72.17;94420.44;6278173;22;20049;-84
2024/03/01 07:56:53;;;;;;;35.70;21.17;;;;;;;9.00;72.75;94409.16;6278237;22;20071;-83
2024/03/01 07:59:19;;;;;;;39.00;22.52;;;;;;;8.94;72.97;94410.50;6252457;22;20007;-84
2024/03/01 08:01:44;;;;;;;30.45;18.45;;;;;;;9.14;72.40;94436.53;6252270;22;20481;-84
2024/03/01 08:04:11;;;;;;;29.80;17.65;;;;;;;9.29;71.33;94427.44;6278186;22;20010;-84
2024/03/01 08:06:36;;;;;;;36.53;22.75;;;;;;;9.37;71.22;94432.81;6252671;22;20043;-84
2024/03/01 08:09:02;;;;;;;31.83;20.88;;;;;;;9.12;71.54;94422.84;6278113;22;20057;-82
2024/03/01 08:11:41;;;;;;;30.58;20.65;;;;;;;9.71;70.08;94450.69;6278071;22;20015;-84
2024/03/01 08:14:19;;;;;;;29.85;18.30;;;;;;;9.95;69.16;94459.94;6278100;22;20457;-84
2024/03/01 08:16:44;;;;;;;26.10;15.95;;;;;;;10.02;67.76;94455.84;6252337;22;20011;-84
2024/03/01 08:19:11;;;;;;;26.38;15.90;;;;;;;9.69;68.07;94446.59;6277969;22;20003;-84
2024/03/01 08:21:37;;;;;;;22.90;14.80;;;;;;;9.65;68.48;94448.63;6252190;22;20018;-84
2024/03/01 08:24:03;;;;;;;28.98;16.10;;;;;;;9.67;69.25;94449.34;6227084;22;20008;-84
2024/03/01 08:26:28;;;;;;;26.77;15.75;;;;;;;9.71;67.56;94429.94;6227331;22;20035;-83
2024/03/01 08:28:55;;;;;;;22.85;15.07;;;;;;;9.71;68.42;94434.31;6252463;22;20460;-82
2024/03/01 08:31:30;;;;;;;24.40;15.15;;;;;;;9.70;68.35;94450.84;6227067;22;20521;-83
2024/03/01 08:34:16;;;;;;;25.33;15.80;;;;;;;9.58;68.74;94437.13;6252574;22;20007;-84
2024/03/01 08:36:42;;;;;;;24.55;15.27;;;;;;;9.51;69.25;94423.06;6252061;22;20012;-84
2024/03/01 08:39:18;;;;;;;23.60;15.50;;;;;;;9.77;68.29;94424.22;6305317;22;20010;-84
2024/03/01 08:41:47;;;;;;;23.63;15.00;;;;;;;10.00;67.92;94424.88;6278738;22;20021;-84
2024/03/01 08:44:33;;;;;;;23.23;15.52;;;;;;;10.18;67.48;94416.44;6253913;22;20074;-84
2024/03/01 08:46:58;;;;;;;25.15;16.40;;;;;;;10.16;66.58;94433.91;6279939;22;20037;-82
2024/03/01 08:49:42;;;;;;;22.20;15.23;;;;;;;10.14;65.30;94436.66;6277907;22;20437;-84
2024/03/01 08:52:26;;;;;;;19.52;13.18;;;;;;;10.07;64.32;94438.94;6305369;22;20458;-84
2024/03/01 08:54:53;;;;;;;24.10;14.95;;;;;;;9.92;66.26;94426.47;6304725;22;20074;-80
2024/03/01 08:57:25;;;;;;;23.38;13.98;;;;;;;9.63;65.42;94428.00;6252230;22;20008;-80
2024/03/01 08:59:51;;;;;;;21.83;13.32;;;;;;;9.61;66.20;94447.22;6278206;22;20003;-81
2024/03/01 09:02:26;;;;;;;24.63;14.18;;;;;;;9.75;66.22;94446.06;6252763;22;20452;-83
2024/03/01 09:04:51;;;;;;;19.58;14.02;;;;;;;9.69;66.25;94444.00;6304771;22;20010;-82
2024/03/01 09:07:20;;;;;;;21.65;13.65;;;;;;;9.79;65.75;94450.88;6305714;22;20011;-83
2024/03/01 09:09:46;;;;;;;20.27;13.52;;;;;;;9.75;65.01;94440.88;6252775;22;20403;-83
2024/03/01 09:12:17;;;;;;;20.35;12.55;;;;;;;9.88;65.14;94456.22;6227138;22;20029;-83
2024/03/01 09:14:42;;;;;;;20.23;13.45;;;;;;;9.93;64.80;94435.91;6278655;22;20023;-83
2024/03/01 09:17:10;;;;;;;19.63;13.60;;;;;;;9.94;65.12;94456.50;6252035;22;20004;-83
2024/03/01 09:19:38;;;;;;;24.10;14.38;;;;;;;9.91;65.28;94448.19;6226982;22;20007;-82
2024/03/01 09:22:04;;;;;;;19.77;13.90;;;;;;;10.00;64.90;94452.56;6252113;22;20051;-83
2024/03/01 09:24:30;;;;;;;22.65;14.90;;;;;;;9.89;64.98;94442.28;6252641;22;20004;-82
2024/03/01 09:26:57;;;;;;;21.90;13.60;;;;;;;9.94;64.38;94453.09;6277870;22;20014;-83
2024/03/01 09:29:27;;;;;;;18.60;12.13;;;;;;;9.85;64.38;94432.19;6278693;22;20065;-83
2024/03/01 09:31:52;;;;;;;21.70;13.68;;;;;;;10.05;64.18;94448.63;6279523;22;20019;-83
2024/03/01 09:34:18;;;;;;;20.13;13.27;;;;;;;9.98;64.24;94431.13;6279514;22;20006;-83
2024/03/01 09:36:43;;;;;;;18.23;12.95;;;;;;;10.25;63.25;94433.09;6253841;22;20018;-83
2024/03/01 09:39:08;;;;;;;21.27;13.52;;;;;;;10.23;63.32;94429.84;6254117;22;20023;-83
2024/03/01 09:41:43;;;;;;;19.50;12.90;;;;;;;10.31;63.07;94437.81;6306779;22;20023;-83
2024/03/01 09:44:39;;;;;;;20.42;14.00;;;;;;;10.14;64.50;94431.47;6279267;22;20061;-83
2024/03/01 09:47:16;;;;;;;22.20;13.65;;;;;;;10.27;63.31;94432.03;6306422;22;20357;-83
2024/03/01 09:50:07;;;;;;;20.10;13.38;;;;;;;10.28;64.20;94438.06;6306666;22;20003;-83
2024/03/01 09:52:38;;;;;;;21.42;13.70;;;;;;;10.64;63.48;94436.59;6256199;22;20436;-84
2024/03/01 09:55:13;;;;;;;22.75;14.07;;;;;;;10.60;62.65;94417.03;6306615;22;20031;-84
2024/03/01 09:58:03;;;;;;;20.52;12.57;;;;;;;10.57;62.64;94435.50;6229446;22;20011;-81
2024/03/01 10:00:33;;;;;;;21.05;13.57;;;;;;;10.59;63.50;94436.19;6231376;22;20095;-82
2024/03/01 10:03:18;;;;;;;18.48;12.32;;;;;;;10.70;61.87;94441.25;6227898;22;20007;-82
2024/03/01 10:05:59;;;;;;;22.27;12.75;;;;;;;10.59;61.90;94432.78;6253513;22;20015;-83
2024/03/01 10:08:35;;;;;;;20.55;12.98;;;;;;;10.72;61.84;94421.13;6306260;22;20014;-82
2024/03/01 10:11:25;;;;;;;21.27;13.27;;;;;;;10.62;62.33;94424.72;6254844;22;20019;-82
2024/03/01 10:14:09;;;;;;;19.80;12.73;;;;;;;10.47;62.32;94421.66;6278796;22;20003;-82
2024/03/01 10:16:54;;;;;;;20.83;13.40;;;;;;;10.62;62.26;94420.31;6278715;22;20011;-83
2024/03/01 10:19:46;;;;;;;19.60;12.48;;;;;;;10.57;61.95;94429.47;6256450;22;20078;-83
2024/03/01 10:22:18;;;;;;;21.48;12.18;;;;;;;10.57;62.16;94422.50;6278715;22;20015;-83
2024/03/01 10:25:01;;;;;;;20.10;12.98;;;;;;;10.67;61.44;94428.53;6306063;22;20909;-83
2024/03/01 10:27:39;;;;;;;23.58;14.55;;;;;;;10.63;62.12;94415.94;6305909;22;20011;-84
2024/03/01 10:30:20;;;;;;;22.63;13.85;;;;;;;10.69;61.84;94421.41;6230274;22;20123;-83
2024/03/01 10:33:03;;;;;;;21.17;12.70;;;;;;;10.60;62.05;94416.22;6252790;22;20026;-83
2024/03/01 10:35:44;;;;;;;20.42;12.68;;;;;;;10.41;61.84;94414.44;6252852;22;20384;-83
2024/03/01 10:38:23;;;;;;;18.60;12.45;;;;;;;10.48;61.86;94412.94;6279612;22;20004;-83
2024/03/01 10:40:58;;;;;;;20.00;13.00;;;;;;;10.43;63.06;94399.53;6228310;22;20015;-83
2024/03/01 10:43:31;;;;;;;19.98;12.82;;;;;;;10.46;63.29;94407.06;6305888;22;20015;-83
2024/03/01 10:46:02;;;;;;;18.83;12.30;;;;;;;10.67;60.95;94399.13;6253900;22;20011;-83
2024/03/01 10:48:32;;;;;;;20.42;11.75;;;;;;;10.40;60.41;94392.03;6278550;22;20023;-83
2024/03/01 10:51:00;;;;;;;18.63;12.30;;;;;;;10.49;60.71;94411.97;6278466;22;20144;-83
2024/03/01 10:53:33;;;;;;;19.88;13.02;;;;;;;10.34;61.26;94395.16;6278538;22;20014;-83
2024/03/01 10:56:03;;;;;;;20.00;12.52;;;;;;;10.20;61.28;94402.38;6228898;22;20026;-81
2024/03/01 10:58:36;;;;;;;18.90;12.38;;;;;;;10.17;61.40;94399.19;6252711;22;20011;-83
2024/03/01 11:01:19;;;;;;;20.33;13.85;;;;;;;10.19;62.07;94403.28;6305905;22;20354;-83
2024/03/01 11:03:47;;;;;;;19.63;12.55;;;;;;;10.30;62.39;94379.03;6305683;22;20461;-83
2024/03/01 11:06:17;;;;;;;18.02;12.00;;;;;;;10.25;61.19;94344.81;6278382;22;20003;-83
2024/03/01 11:08:55;;;;;;;20.98;13.48;;;;;;;10.19;61.73;94361.75;6278321;22;20007;-82
2024/03/01 11:11:27;;;;;;;26.30;16.33;;;;;;;10.35;61.70;94358.66;6278958;22;20018;-82
2024/03/01 11:13:54;;;;;;;21.52;13.52;;;;;;;10.36;61.39;94357.69;6279030;22;20105;-82
2024/03/01 11:16:20;;;;;;;20.70;13.45;;;;;;;10.43;61.06;94327.66;6278769;22;20007;-82
2024/03/01 11:18:47;;;;;;;18.75;12.38;;;;;;;10.56;61.36;94347.31;6305455;22;20096;-81
2024/03/01 11:21:16;;;;;;;19.48;11.45;;;;;;;10.34;61.54;94366.63;6227436;22;20004;-82
2024/03/01 11:24:04;;;;;;;21.45;12.40;;;;;;;10.34;61.74;94362.22;6227976;22;20505;-82
2024/03/01 11:26:44;;;;;;;20.40;13.65;;;;;;;10.14;63.03;94358.78;6278074;22;20086;-82